Tuesday, November 21, 2017, 10:40 AM EST
Back to Local

KPSM, Pease Air Force Base / Portsmouth

Location: Portsmouth, NH, United States Lat: 43.083
Local Time: 10:40 AM EST (15:40 GMT) Lon: -70.817
Time Zone: US/Eastern Elev: 101 ft

Show me the last for .
Show Decoded

2017-11-21 09:56 METAR KPSM 211456Z 21008KT 10SM BKN250 06/M04 A3006 RMK AO2A SLP182 T00621040
                 58002 $ =
2017-11-21 08:56 METAR KPSM 211356Z 21009KT 10SM BKN250 04/M03 A3008 RMK AO2A SLP189 T00431035 $
                 =
2017-11-21 07:56 METAR KPSM 211256Z 20007KT 10SM BKN250 02/M03 A3008 RMK AO2A SLP189 T00161035 $
                 =
2017-11-21 06:56 METAR KPSM 211156Z 21005KT 10SM FEW250 00/M04 A3007 RMK AO2A SLP186 T10041043
                 10038 21004 53007 $ =
2017-11-21 05:56 METAR KPSM 211056Z 18003KT 10SM CLR 01/M04 A3006 RMK AO2A SLP182 T00081039 $ =
2017-11-21 04:56 METAR KPSM 210956Z 21005KT 10SM CLR 02/M03 A3005 RMK AO2A SLP179 T00161033 $ =
2017-11-21 03:56 METAR KPSM 210856Z 20005KT 10SM CLR 01/M03 A3005 RMK AO2A SLP179 T00141031 50005
                 $ =
2017-11-21 02:56 METAR KPSM 210756Z 19004KT 10SM FEW050 02/M02 A3005 RMK AO2A SLP179 T00241025 $
                 =
2017-11-21 01:56 METAR KPSM 210656Z 21006KT 10SM BKN050 04/M02 A3006 RMK AO2A SLP182 T00381022 $
                 =
2017-11-21 00:56 METAR KPSM 210556Z 23005KT 10SM BKN055 03/M03 A3003 RMK AO2A SLP172 T00311033
                 10033 20004 52012 $ =
2017-11-20 23:56 METAR KPSM 210456Z 24003KT 10SM OVC055 02/M05 A3003 RMK AO2A SLP172 T00161049
                 400471006 CHINO RWY16 $ =
2017-11-20 22:56 METAR KPSM 210356Z 16003KT 10SM BKN047 01/M04 A3002 RMK AO2A SLP169 T00091045
                 CHINO RWY16 $ =
2017-11-20 21:56 METAR KPSM 210256Z COR 30003KT 10SM BKN050 02/M05 A3000 RMK AO2A SLP162
                 T00191053 51027 CHINO RWY16 $ COR 0258 =
2017-11-20 20:56 METAR KPSM 210156Z 27004KT 10SM BKN045 03/M05 A2998 RMK AO2A SLP155 T00301049
                 CHINO RWY16 $ =
2017-11-20 19:56 METAR KPSM 210056Z 26009KT 10SM BKN060 03/M06 A2995 RMK AO2A SLP145 T00331059 $
                 =
2017-11-20 18:56 METAR KPSM 202356Z 24007KT 10SM BKN055 03/M07 A2992 RMK AO2A SLP135 T00291070
                 10047 20023 52020 $ =
2017-11-20 17:56 METAR KPSM 202256Z 21007KT 10SM BKN060 02/M07 A2991 RMK AO2A SLP132 T00241070
                 CHINO RWY16 $ =
2017-11-20 16:56 METAR KPSM 202156Z 24013KT 10SM SCT060 03/M07 A2987 RMK AO2A SLP118 T00291070
                 CHINO RWY16 $ =
2017-11-20 15:56 METAR KPSM 202056Z 24013G20KT 10SM BKN065 04/M08 A2986 RMK AO2A PK WND 23031/36
                 SLP115 T00391082 53016 CHINO RWY16 $ =
2017-11-20 14:56 METAR KPSM 201956Z 27011G18KT 10SM SCT070 05/M10 A2984 RMK AO2A PK WND 30027/04
                 SLP108 T00461096 CHINO RWY16 $ =
2017-11-20 13:56 METAR KPSM 201856Z 28016G20KT 10SM FEW070 04/M10 A2981 RMK AO2A PK WND 27030/25
                 SLP098 T00441101 CHINO RWY16 $ =
2017-11-20 12:56 METAR KPSM 201756Z 26017G23KT 10SM SCT070 05/M10 A2981 RMK AO2A PK WND 26042/36
                 SLP098 T00451100 10046 21004 50000 CHINO RWY16 $ =
2017-11-20 11:56 METAR KPSM 201656Z 30013G27KT 10SM SCT060 04/M11 A2982 RMK AO2A PK WND 27027/45
                 SLP101 T00401112 CHINO RWY16 $ =
2017-11-20 10:56 METAR KPSM 201556Z 29014G26KT 10SM SCT060 03/M11 A2982 RMK AO2A PK WND 29038/01
                 SLP101 T00291114 CHINO RWY16 $ =

Support USWX by starting your Amazon purchase here.